Yangtze Xing Zhong — VRJR4 — position and weather

sailwx.info

Track history (hours):
 
Tides and Currents Weather Stations Pressure Air Temp Water Temp Dewpoint Dewpoint Depression Visibility Wind Speed Wind Dir Waves Ship Positions

Yangtze Xing Zhong

Last reported at 2018-May-28 20:54 UTC. Time now 2018-Jun-23 04:38 UTC.
Position N 00°10' W 050°53'.
Warning: this ship's position is 25 days out of date.

Length 229 m; draft 11.6 m.

Type: Cargo ship. MMSI: 477167400.

Date/timePositionNaut miles runAvg speedWind from/ knotsBaromVisibWave heightAir tempDewpointWater temp
2018-May-28 20:54N 00°10' W 050°53'513.1
2018-May-28 20:30N 00°07' W 050°57'613.1
2018-May-28 20:00N 00°01' W 051°00'4 7.8
2018-May-28 19:30S 00°03' W 050°60'612.5
2018-May-28 19:00S 00°09' W 051°02'611.8
2018-May-28 18:29S 00°15' W 051°03'511.1
2018-May-28 18:00S 00°20' W 051°06'611.8
2018-May-28 17:30S 00°24' W 051°10'812.9
2018-May-28 16:54S 00°27' W 051°17'  
2018-May-22 22:32S 00°14' W 051°19'011.3
2018-May-22 22:30S 00°14' W 051°19'611.2
2018-May-22 22:00S 00°10' W 051°15'611.0
2018-May-22 21:30S 00°07' W 051°11'510.4
2018-May-22 21:00S 00°04' W 051°06'3 5.3
2018-May-22 20:30S 00°03' W 051°04'510.0
2018-May-22 20:00N 00°01' W 051°00'1 2.4
2018-May-22 19:28N 00°02' W 050°59'0 0.0
2018-May-22 18:52N 00°02' W 050°59'0 0.0
2018-May-22 18:28N 00°02' W 050°59'0 0.0
2018-May-22 17:58N 00°02' W 050°59'0 0.0
2018-May-22 17:28N 00°02' W 050°59'0 0.0
2018-May-22 16:58N 00°02' W 050°59'0 0.1
2018-May-22 16:28N 00°02' W 050°59'0 0.1
2018-May-22 15:58N 00°02' W 050°59'0 0.0
2018-May-22 15:25N 00°02' W 050°59'0 0.1
2018-May-22 14:55N 00°02' W 050°59'0 0.2
2018-May-22 14:25N 00°02' W 050°60'0 0.3
2018-May-22 13:55N 00°01' W 050°60'0 0.1
2018-May-22 13:25N 00°01' W 050°60'0 0.0
2018-May-22 12:55N 00°01' W 050°60'0 0.1
2018-May-22 12:22N 00°01' W 050°59'0 0.0
2018-May-22 11:58N 00°01' W 050°59'0 0.0
2018-May-22 11:25N 00°01' W 050°59'0 0.0
2018-May-22 10:52N 00°01' W 050°60'0 0.1
2018-May-22 10:28N 00°01' W 050°60'0 0.2
2018-May-22 09:58N 00°02' W 050°60'0 0.3
2018-May-22 09:28N 00°02' W 050°59'0 0.1
2018-May-22 08:58N 00°02' W 050°59'0 0.0
2018-May-22 08:28N 00°02' W 050°59'0 0.0
2018-May-22 07:58N 00°02' W 050°59'0 0.0
2018-May-22 07:28N 00°02' W 050°59'0 0.0
2018-May-22 06:58N 00°02' W 050°59'0 0.0
2018-May-22 06:28N 00°02' W 050°59'0 0.0
2018-May-22 05:58N 00°02' W 050°59'0 0.0
2018-May-22 05:28N 00°02' W 050°59'0 0.0
2018-May-22 04:58N 00°02' W 050°59'0 0.0
2018-May-22 04:28N 00°02' W 050°59'0 0.0
2018-May-22 03:58N 00°02' W 050°59'0 0.0
2018-May-22 03:28N 00°02' W 050°59'0 0.0
2018-May-22 02:58N 00°02' W 050°59'0 0.0
2018-May-22 02:28N 00°02' W 050°59'0 0.1
2018-May-22 01:58N 00°02' W 050°59'0 0.3
2018-May-22 01:28N 00°01' W 050°60'0 0.1
2018-May-22 00:58N 00°01' W 050°60'0 0.1
2018-May-22 00:28N 00°01' W 050°60'0 0.0
2018-May-21 23:58N 00°01' W 050°60'0 0.0
2018-May-21 23:28N 00°01' W 050°60'0 0.0
2018-May-21 22:58N 00°01' W 050°60'0 0.0
2018-May-21 22:28N 00°01' W 050°60'0 0.0
2018-May-21 21:58N 00°01' W 050°60'0 0.2
2018-May-21 21:25N 00°01' W 050°60'0 0.4
2018-May-21 20:49N 00°02' W 050°59'0 0.1
2018-May-21 20:16N 00°02' W 050°59'0 0.0
2018-May-21 19:52N 00°02' W 050°59'0 0.0
2018-May-21 19:28N 00°02' W 050°59'0 0.0
2018-May-21 18:55N 00°02' W 050°59'0 0.0
2018-May-21 18:25N 00°02' W 050°59'0 0.0
2018-May-21 17:55N 00°02' W 050°59'0 0.0
2018-May-21 17:25N 00°02' W 050°59'0 0.1
2018-May-21 16:55N 00°02' W 050°59'0 0.1
2018-May-21 16:25N 00°02' W 050°59'0 0.1
2018-May-21 15:55N 00°02' W 050°59'0 0.0
2018-May-21 15:25N 00°02' W 050°59'0 0.0
2018-May-21 14:55N 00°02' W 050°59'0 0.0
2018-May-21 14:25N 00°02' W 050°59'0 0.0
2018-May-21 13:55N 00°02' W 050°59'0 0.1
2018-May-21 13:22N 00°02' W 050°59'0 0.4
2018-May-21 12:55N 00°01' W 050°59'0 0.2
2018-May-21 12:25N 00°01' W 050°59'0 0.0
2018-May-21 11:55N 00°01' W 050°59'0 0.0
2018-May-21 11:25N 00°01' W 050°59'0 0.1
2018-May-21 10:55N 00°01' W 050°60'0 0.0
2018-May-21 10:25N 00°01' W 050°60'0 0.0
2018-May-21 09:55N 00°01' W 050°60'0 0.1
2018-May-21 09:25N 00°01' W 050°60'0 0.6
2018-May-21 08:55N 00°02' W 050°59'0 0.1
2018-May-21 08:19N 00°02' W 050°59'0 0.0
2018-May-21 07:55N 00°02' W 050°59'0 0.0
2018-May-21 07:25N 00°02' W 050°59'0 0.0
2018-May-21 06:55N 00°02' W 050°59'0 0.0
2018-May-21 06:28N 00°02' W 050°59'0 0.0
2018-May-21 05:58N 00°02' W 050°59'0 0.0
2018-May-21 05:28N 00°02' W 050°59'0 0.0
2018-May-21 04:58N 00°02' W 050°59'0 0.0
2018-May-21 04:28N 00°02' W 050°59'0 0.0
2018-May-21 03:49N 00°02' W 050°59'0 0.1
2018-May-21 03:25N 00°02' W 050°59'0 0.0
2018-May-21 02:58N 00°02' W 050°59'0 0.0
2018-May-21 02:28N 00°02' W 050°59'0 0.0
2018-May-21 01:58N 00°02' W 050°59'0 0.0
2018-May-21 01:28N 00°02' W 050°59'0 0.1
2018-May-21 00:58N 00°02' W 050°59'0 0.5
2018-May-21 00:28N 00°01' W 050°60'0 0.0
2018-May-20 23:58N 00°01' W 050°60'0 0.0
2018-May-20 23:28N 00°01' W 050°60'0 0.0
2018-May-20 22:58N 00°01' W 050°60'0 0.0
2018-May-20 22:28N 00°01' W 050°60'0 0.1
2018-May-20 21:58N 00°01' W 050°60'0 0.0
2018-May-20 21:28N 00°01' W 050°60'0 0.0
2018-May-20 20:58N 00°01' W 050°60'0 0.2
2018-May-20 20:28N 00°01' W 050°60'0 0.3
2018-May-20 19:58N 00°02' W 050°60'0 0.1
2018-May-20 19:04N 00°02' W 050°59'0 0.1
2018-May-20 18:58N 00°02' W 050°59'0 0.0
2018-May-20 18:28N 00°02' W 050°59'0 0.0
2018-May-20 17:46N 00°02' W 050°59'0 0.0
2018-May-20 17:10N 00°02' W 050°59'0 0.0
2018-May-20 16:58N 00°02' W 050°59'0 0.0
2018-May-20 16:28N 00°02' W 050°59'0 0.0
2018-May-20 15:58N 00°02' W 050°59'0 0.0
2018-May-20 15:28N 00°02' W 050°59'0 0.1
2018-May-20 14:58N 00°02' W 050°59'0 0.1
2018-May-20 14:28N 00°02' W 050°59'0 0.1
2018-May-20 13:58N 00°02' W 050°59'0 0.1
2018-May-20 13:28N 00°02' W 050°59'0 0.0
2018-May-20 12:58N 00°02' W 050°59'0 0.1
2018-May-20 12:28N 00°02' W 050°59'0 0.0
2018-May-20 11:58N 00°02' W 050°59'0 0.3
2018-May-20 11:28N 00°01' W 050°59'0 0.2
2018-May-20 10:58N 00°01' W 050°59'0 0.1
2018-May-20 10:28N 00°01' W 050°59'0 0.1
2018-May-20 09:58N 00°01' W 050°60'0 0.1
2018-May-20 09:28N 00°01' W 050°60'0 0.0
2018-May-20 08:58N 00°01' W 050°60'0 0.0
2018-May-20 08:28N 00°01' W 050°60'0 0.4
2018-May-20 07:58N 00°02' W 050°60'0 0.2
2018-May-20 07:28N 00°02' W 050°59'0 0.0
2018-May-20 06:58N 00°02' W 050°59'0 0.0
2018-May-20 06:28N 00°02' W 050°59'0 0.0
2018-May-20 05:58N 00°02' W 050°59'0 0.0
2018-May-20 05:28N 00°02' W 050°59'0 0.0
2018-May-20 04:52N 00°02' W 050°59'0 0.0
2018-May-20 04:25N 00°02' W 050°59'0 0.0
2018-May-20 03:55N 00°02' W 050°59'0 0.0
2018-May-20 03:28N 00°02' W 050°59'0 0.0
2018-May-20 02:58N 00°02' W 050°59'0 0.0
2018-May-20 02:28N 00°02' W 050°59'0 0.0
2018-May-20 01:58N 00°02' W 050°59'0 0.2
2018-May-20 01:28N 00°02' W 050°59'0 0.0
2018-May-20 00:58N 00°02' W 050°59'0 0.0
2018-May-20 00:28N 00°02' W 050°59'0 0.1
2018-May-19 23:58N 00°02' W 050°59'0 0.2
2018-May-19 23:28N 00°02' W 050°60'0 0.2
2018-May-19 22:34N 00°01' W 050°60'0 0.1
2018-May-19 22:28N 00°01' W 050°60'0 0.1
2018-May-19 21:58N 00°01' W 050°60'0 0.0
2018-May-19 21:22N 00°01' W 050°60'0 0.0
2018-May-19 20:58N 00°01' W 050°60'0 0.3
2018-May-19 20:23N 00°01' W 050°60'2 5.8
2018-May-19 20:00N 00°00' W 051°02'510.6
2018-May-19 19:30S 00°04' W 051°05'1 2.3
2018-May-19 19:00S 00°04' W 051°06'0 0.1
2018-May-19 18:30S 00°04' W 051°06'0 0.1
2018-May-19 18:00S 00°04' W 051°06'0 0.0
2018-May-19 17:30S 00°04' W 051°06'0 0.1
2018-May-19 17:00S 00°04' W 051°06'0 0.0
2018-May-19 16:30S 00°04' W 051°06'0 0.0
2018-May-19 15:54S 00°04' W 051°06'0 0.0
2018-May-19 15:30S 00°04' W 051°06'0 0.0
2018-May-19 14:42S 00°04' W 051°06'0 0.0
2018-May-19 14:30S 00°04' W 051°06'0 0.0
2018-May-19 14:00S 00°04' W 051°06'0 0.0
2018-May-19 13:30S 00°04' W 051°06'0 0.0
2018-May-19 12:54S 00°04' W 051°06'0 0.0
2018-May-19 12:30S 00°04' W 051°06'0 0.0
2018-May-19 11:54S 00°04' W 051°06'0 0.2
2018-May-19 11:30S 00°04' W 051°06'1 2.2
2018-May-19 10:59S 00°04' W 051°05'4 7.8
2018-May-19 10:28S 00°01' W 051°02'612.7
2018-May-19 10:00N 00°04' W 050°59'1 1.0
2018-May-19 09:24N 00°04' W 050°58'0 0.0
2018-May-19 09:00N 00°04' W 050°58'0 0.0
2018-May-19 08:30N 00°04' W 050°58'0 0.0
2018-May-19 08:00N 00°04' W 050°58'0 0.0
2018-May-19 07:30N 00°04' W 050°58'0 0.4
2018-May-19 07:00N 00°04' W 050°58'0 0.1
2018-May-19 06:25N 00°04' W 050°58'0 0.1
2018-May-19 05:51N 00°04' W 050°58'0 0.0
2018-May-19 05:27N 00°04' W 050°58'0 0.0
2018-May-19 04:57N 00°04' W 050°58'0 0.0
2018-May-19 04:27N 00°04' W 050°58'0 0.0
2018-May-19 04:00N 00°04' W 050°58'0 0.0
2018-May-19 03:30N 00°04' W 050°58'0 0.0
2018-May-19 02:54N 00°04' W 050°58'0 0.0
2018-May-19 02:09N 00°04' W 050°58'0 0.0
2018-May-19 01:57N 00°04' W 050°58'0 0.2
2018-May-19 01:30N 00°04' W 050°58'0 0.0
2018-May-19 01:00N 00°04' W 050°58'0 0.0
2018-May-19 00:30N 00°04' W 050°58'0 0.0
2018-May-19 00:00N 00°04' W 050°58'0 0.0
2018-May-18 23:30N 00°04' W 050°58'0 0.0
2018-May-18 23:00N 00°04' W 050°58'0 0.3
2018-May-18 22:30N 00°04' W 050°58'0 0.2
2018-May-18 21:54N 00°04' W 050°58'0 0.0
2018-May-18 21:24N 00°04' W 050°58'0 0.2
2018-May-18 20:56N 00°04' W 050°58'  
Track history (hours):
 
Tides and Currents Weather Stations Pressure Air Temp Water Temp Dewpoint Dewpoint Depression Visibility Wind Speed Wind Dir Waves Ship Positions

Yangtze Xing Zhong

Last reported at 2018-May-28 20:54 UTC. Time now 2018-Jun-23 04:38 UTC.
Position N 00°10' W 050°53'.
Warning: this ship's position is 25 days out of date.

Length 229 m; draft 11.6 m.

Type: Cargo ship. MMSI: 477167400.

Date/timePositionNaut miles runAvg speedWind from/ knotsBaromVisibWave heightAir tempDewpointWater temp
2018-May-28 20:54N 00°10' W 050°53'513.1
2018-May-28 20:30N 00°07' W 050°57'613.1
2018-May-28 20:00N 00°01' W 051°00'4 7.8
2018-May-28 19:30S 00°03' W 050°60'612.5
2018-May-28 19:00S 00°09' W 051°02'611.8
2018-May-28 18:29S 00°15' W 051°03'511.1
2018-May-28 18:00S 00°20' W 051°06'611.8
2018-May-28 17:30S 00°24' W 051°10'812.9
2018-May-28 16:54S 00°27' W 051°17'  
2018-May-22 22:32S 00°14' W 051°19'011.3
2018-May-22 22:30S 00°14' W 051°19'611.2
2018-May-22 22:00S 00°10' W 051°15'611.0
2018-May-22 21:30S 00°07' W 051°11'510.4
2018-May-22 21:00S 00°04' W 051°06'3 5.3
2018-May-22 20:30S 00°03' W 051°04'510.0
2018-May-22 20:00N 00°01' W 051°00'1 2.4
2018-May-22 19:28N 00°02' W 050°59'0 0.0
2018-May-22 18:52N 00°02' W 050°59'0 0.0
2018-May-22 18:28N 00°02' W 050°59'0 0.0
2018-May-22 17:58N 00°02' W 050°59'0 0.0
2018-May-22 17:28N 00°02' W 050°59'0 0.0
2018-May-22 16:58N 00°02' W 050°59'0 0.1
2018-May-22 16:28N 00°02' W 050°59'0 0.1
2018-May-22 15:58N 00°02' W 050°59'0 0.0
2018-May-22 15:25N 00°02' W 050°59'0 0.1
2018-May-22 14:55N 00°02' W 050°59'0 0.2
2018-May-22 14:25N 00°02' W 050°60'0 0.3
2018-May-22 13:55N 00°01' W 050°60'0 0.1
2018-May-22 13:25N 00°01' W 050°60'0 0.0
2018-May-22 12:55N 00°01' W 050°60'0 0.1
2018-May-22 12:22N 00°01' W 050°59'0 0.0
2018-May-22 11:58N 00°01' W 050°59'0 0.0
2018-May-22 11:25N 00°01' W 050°59'0 0.0
2018-May-22 10:52N 00°01' W 050°60'0 0.1
2018-May-22 10:28N 00°01' W 050°60'0 0.2
2018-May-22 09:58N 00°02' W 050°60'0 0.3
2018-May-22 09:28N 00°02' W 050°59'0 0.1
2018-May-22 08:58N 00°02' W 050°59'0 0.0
2018-May-22 08:28N 00°02' W 050°59'0 0.0
2018-May-22 07:58N 00°02' W 050°59'0 0.0
2018-May-22 07:28N 00°02' W 050°59'0 0.0
2018-May-22 06:58N 00°02' W 050°59'0 0.0
2018-May-22 06:28N 00°02' W 050°59'0 0.0
2018-May-22 05:58N 00°02' W 050°59'0 0.0
2018-May-22 05:28N 00°02' W 050°59'0 0.0
2018-May-22 04:58N 00°02' W 050°59'0 0.0
2018-May-22 04:28N 00°02' W 050°59'0 0.0
2018-May-22 03:58N 00°02' W 050°59'0 0.0
2018-May-22 03:28N 00°02' W 050°59'0 0.0
2018-May-22 02:58N 00°02' W 050°59'0 0.0
2018-May-22 02:28N 00°02' W 050°59'0 0.1
2018-May-22 01:58N 00°02' W 050°59'0 0.3
2018-May-22 01:28N 00°01' W 050°60'0 0.1
2018-May-22 00:58N 00°01' W 050°60'0 0.1
2018-May-22 00:28N 00°01' W 050°60'0 0.0
2018-May-21 23:58N 00°01' W 050°60'0 0.0
2018-May-21 23:28N 00°01' W 050°60'0 0.0
2018-May-21 22:58N 00°01' W 050°60'0 0.0
2018-May-21 22:28N 00°01' W 050°60'0 0.0
2018-May-21 21:58N 00°01' W 050°60'0 0.2
2018-May-21 21:25N 00°01' W 050°60'0 0.4
2018-May-21 20:49N 00°02' W 050°59'0 0.1
2018-May-21 20:16N 00°02' W 050°59'0 0.0
2018-May-21 19:52N 00°02' W 050°59'0 0.0
2018-May-21 19:28N 00°02' W 050°59'0 0.0
2018-May-21 18:55N 00°02' W 050°59'0 0.0
2018-May-21 18:25N 00°02' W 050°59'0 0.0
2018-May-21 17:55N 00°02' W 050°59'0 0.0
2018-May-21 17:25N 00°02' W 050°59'0 0.1
2018-May-21 16:55N 00°02' W 050°59'0 0.1
2018-May-21 16:25N 00°02' W 050°59'0 0.1
2018-May-21 15:55N 00°02' W 050°59'0 0.0
2018-May-21 15:25N 00°02' W 050°59'0 0.0
2018-May-21 14:55N 00°02' W 050°59'0 0.0
2018-May-21 14:25N 00°02' W 050°59'0 0.0
2018-May-21 13:55N 00°02' W 050°59'0 0.1
2018-May-21 13:22N 00°02' W 050°59'0 0.4
2018-May-21 12:55N 00°01' W 050°59'0 0.2
2018-May-21 12:25N 00°01' W 050°59'0 0.0
2018-May-21 11:55N 00°01' W 050°59'0 0.0
2018-May-21 11:25N 00°01' W 050°59'0 0.1
2018-May-21 10:55N 00°01' W 050°60'0 0.0
2018-May-21 10:25N 00°01' W 050°60'0 0.0
2018-May-21 09:55N 00°01' W 050°60'0 0.1
2018-May-21 09:25N 00°01' W 050°60'0 0.6
2018-May-21 08:55N 00°02' W 050°59'0 0.1
2018-May-21 08:19N 00°02' W 050°59'0 0.0
2018-May-21 07:55N 00°02' W 050°59'0 0.0
2018-May-21 07:25N 00°02' W 050°59'0 0.0
2018-May-21 06:55N 00°02' W 050°59'0 0.0
2018-May-21 06:28N 00°02' W 050°59'0 0.0
2018-May-21 05:58N 00°02' W 050°59'0 0.0
2018-May-21 05:28N 00°02' W 050°59'0 0.0
2018-May-21 04:58N 00°02' W 050°59'0 0.0
2018-May-21 04:28N 00°02' W 050°59'0 0.0
2018-May-21 03:49N 00°02' W 050°59'0 0.1
2018-May-21 03:25N 00°02' W 050°59'0 0.0
2018-May-21 02:58N 00°02' W 050°59'0 0.0
2018-May-21 02:28N 00°02' W 050°59'0 0.0
2018-May-21 01:58N 00°02' W 050°59'0 0.0
2018-May-21 01:28N 00°02' W 050°59'0 0.1
2018-May-21 00:58N 00°02' W 050°59'0 0.5
2018-May-21 00:28N 00°01' W 050°60'0 0.0
2018-May-20 23:58N 00°01' W 050°60'0 0.0
2018-May-20 23:28N 00°01' W 050°60'0 0.0
2018-May-20 22:58N 00°01' W 050°60'0 0.0
2018-May-20 22:28N 00°01' W 050°60'0 0.1
2018-May-20 21:58N 00°01' W 050°60'0 0.0
2018-May-20 21:28N 00°01' W 050°60'0 0.0
2018-May-20 20:58N 00°01' W 050°60'0 0.2
2018-May-20 20:28N 00°01' W 050°60'0 0.3
2018-May-20 19:58N 00°02' W 050°60'0 0.1
2018-May-20 19:04N 00°02' W 050°59'0 0.1
2018-May-20 18:58N 00°02' W 050°59'0 0.0
2018-May-20 18:28N 00°02' W 050°59'0 0.0
2018-May-20 17:46N 00°02' W 050°59'0 0.0
2018-May-20 17:10N 00°02' W 050°59'0 0.0
2018-May-20 16:58N 00°02' W 050°59'0 0.0
2018-May-20 16:28N 00°02' W 050°59'0 0.0
2018-May-20 15:58N 00°02' W 050°59'0 0.0
2018-May-20 15:28N 00°02' W 050°59'0 0.1
2018-May-20 14:58N 00°02' W 050°59'0 0.1
2018-May-20 14:28N 00°02' W 050°59'0 0.1
2018-May-20 13:58N 00°02' W 050°59'0 0.1
2018-May-20 13:28N 00°02' W 050°59'0 0.0
2018-May-20 12:58N 00°02' W 050°59'0 0.1
2018-May-20 12:28N 00°02' W 050°59'0 0.0
2018-May-20 11:58N 00°02' W 050°59'0 0.3
2018-May-20 11:28N 00°01' W 050°59'0 0.2
2018-May-20 10:58N 00°01' W 050°59'0 0.1
2018-May-20 10:28N 00°01' W 050°59'0 0.1
2018-May-20 09:58N 00°01' W 050°60'0 0.1
2018-May-20 09:28N 00°01' W 050°60'0 0.0
2018-May-20 08:58N 00°01' W 050°60'0 0.0
2018-May-20 08:28N 00°01' W 050°60'0 0.4
2018-May-20 07:58N 00°02' W 050°60'0 0.2
2018-May-20 07:28N 00°02' W 050°59'0 0.0
2018-May-20 06:58N 00°02' W 050°59'0 0.0
2018-May-20 06:28N 00°02' W 050°59'0 0.0
2018-May-20 05:58N 00°02' W 050°59'0 0.0
2018-May-20 05:28N 00°02' W 050°59'0 0.0
2018-May-20 04:52N 00°02' W 050°59'0 0.0
2018-May-20 04:25N 00°02' W 050°59'0 0.0
2018-May-20 03:55N 00°02' W 050°59'0 0.0
2018-May-20 03:28N 00°02' W 050°59'0 0.0
2018-May-20 02:58N 00°02' W 050°59'0 0.0
2018-May-20 02:28N 00°02' W 050°59'0 0.0
2018-May-20 01:58N 00°02' W 050°59'0 0.2
2018-May-20 01:28N 00°02' W 050°59'0 0.0
2018-May-20 00:58N 00°02' W 050°59'0 0.0
2018-May-20 00:28N 00°02' W 050°59'0 0.1
2018-May-19 23:58N 00°02' W 050°59'0 0.2
2018-May-19 23:28N 00°02' W 050°60'0 0.2
2018-May-19 22:34N 00°01' W 050°60'0 0.1
2018-May-19 22:28N 00°01' W 050°60'0 0.1
2018-May-19 21:58N 00°01' W 050°60'0 0.0
2018-May-19 21:22N 00°01' W 050°60'0 0.0
2018-May-19 20:58N 00°01' W 050°60'0 0.3
2018-May-19 20:23N 00°01' W 050°60'2 5.8
2018-May-19 20:00N 00°00' W 051°02'510.6
2018-May-19 19:30S 00°04' W 051°05'1 2.3
2018-May-19 19:00S 00°04' W 051°06'0 0.1
2018-May-19 18:30S 00°04' W 051°06'0 0.1
2018-May-19 18:00S 00°04' W 051°06'0 0.0
2018-May-19 17:30S 00°04' W 051°06'0 0.1
2018-May-19 17:00S 00°04' W 051°06'0 0.0
2018-May-19 16:30S 00°04' W 051°06'0 0.0
2018-May-19 15:54S 00°04' W 051°06'0 0.0
2018-May-19 15:30S 00°04' W 051°06'0 0.0
2018-May-19 14:42S 00°04' W 051°06'0 0.0
2018-May-19 14:30S 00°04' W 051°06'0 0.0
2018-May-19 14:00S 00°04' W 051°06'0 0.0
2018-May-19 13:30S 00°04' W 051°06'0 0.0
2018-May-19 12:54S 00°04' W 051°06'0 0.0
2018-May-19 12:30S 00°04' W 051°06'0 0.0
2018-May-19 11:54S 00°04' W 051°06'0 0.2
2018-May-19 11:30S 00°04' W 051°06'1 2.2
2018-May-19 10:59S 00°04' W 051°05'4 7.8
2018-May-19 10:28S 00°01' W 051°02'612.7
2018-May-19 10:00N 00°04' W 050°59'1 1.0
2018-May-19 09:24N 00°04' W 050°58'0 0.0
2018-May-19 09:00N 00°04' W 050°58'0 0.0
2018-May-19 08:30N 00°04' W 050°58'0 0.0
2018-May-19 08:00N 00°04' W 050°58'0 0.0
2018-May-19 07:30N 00°04' W 050°58'0 0.4
2018-May-19 07:00N 00°04' W 050°58'0 0.1
2018-May-19 06:25N 00°04' W 050°58'0 0.1
2018-May-19 05:51N 00°04' W 050°58'0 0.0
2018-May-19 05:27N 00°04' W 050°58'0 0.0
2018-May-19 04:57N 00°04' W 050°58'0 0.0
2018-May-19 04:27N 00°04' W 050°58'0 0.0
2018-May-19 04:00N 00°04' W 050°58'0 0.0
2018-May-19 03:30N 00°04' W 050°58'0 0.0
2018-May-19 02:54N 00°04' W 050°58'0 0.0
2018-May-19 02:09N 00°04' W 050°58'0 0.0
2018-May-19 01:57N 00°04' W 050°58'0 0.2
2018-May-19 01:30N 00°04' W 050°58'0 0.0
2018-May-19 01:00N 00°04' W 050°58'0 0.0
2018-May-19 00:30N 00°04' W 050°58'0 0.0
2018-May-19 00:00N 00°04' W 050°58'0 0.0
2018-May-18 23:30N 00°04' W 050°58'0 0.0
2018-May-18 23:00N 00°04' W 050°58'0 0.3
2018-May-18 22:30N 00°04' W 050°58'0 0.2
2018-May-18 21:54N 00°04' W 050°58'0 0.0
2018-May-18 21:24N 00°04' W 050°58'0 0.2
2018-May-18 20:56N 00°04' W 050°58'  

Dump ship's entire track history